createdAt,value
2022-12-29T00:00:44.713Z,8.60
2022-12-29T00:05:08.084Z,8.60
2022-12-29T00:09:29.787Z,8.80
2022-12-29T00:14:11.363Z,8.80
2022-12-29T00:18:33.267Z,8.80
2022-12-29T00:23:14.623Z,8.90
2022-12-29T00:27:55.418Z,8.90
2022-12-29T00:32:35.817Z,8.80
2022-12-29T00:36:58.132Z,8.70
2022-12-29T00:41:38.596Z,8.60
2022-12-29T00:46:00.701Z,8.50
2022-12-29T00:50:22.591Z,8.40
2022-12-29T00:54:46.022Z,8.40
2022-12-29T00:59:11.519Z,8.40
2022-12-29T01:03:38.695Z,8.50
2022-12-29T01:08:00.525Z,8.40
2022-12-29T01:12:41.544Z,8.40
2022-12-29T01:17:06.504Z,8.40
2022-12-29T01:21:28.063Z,8.50
2022-12-29T01:25:49.981Z,8.50
2022-12-29T01:30:12.445Z,8.50
2022-12-29T01:34:34.094Z,8.50
2022-12-29T01:38:56.521Z,8.50
2022-12-29T01:43:18.297Z,8.60
2022-12-29T01:47:56.754Z,8.60
2022-12-29T01:52:18.483Z,8.50
2022-12-29T01:56:40.577Z,8.50
2022-12-29T02:01:03.304Z,8.50
2022-12-29T02:05:30.118Z,8.60
2022-12-29T02:09:55.188Z,8.60
2022-12-29T02:14:16.797Z,8.70
2022-12-29T02:19:25.013Z,8.80
2022-12-29T02:24:05.136Z,8.80
2022-12-29T02:29:22.012Z,8.80
2022-12-29T02:34:19.844Z,8.80
2022-12-29T02:39:00.453Z,8.90
2022-12-29T02:43:48.931Z,9.00
2022-12-29T02:48:33.492Z,9.00
2022-12-29T02:53:16.011Z,9.20
2022-12-29T02:57:39.341Z,9.30
2022-12-29T03:02:23.228Z,9.30
2022-12-29T03:07:31.247Z,9.40
2022-12-29T03:12:11.731Z,9.50
2022-12-29T03:16:55.661Z,9.60
2022-12-29T03:22:23.273Z,9.70
2022-12-29T03:26:54.242Z,9.70
2022-12-29T03:31:18.348Z,9.70
2022-12-29T03:35:44.976Z,9.70
2022-12-29T03:40:09.152Z,9.80
2022-12-29T03:44:41.949Z,9.80
2022-12-29T03:49:05.150Z,9.80
2022-12-29T03:53:27.049Z,9.80
2022-12-29T03:57:49.046Z,9.80
2022-12-29T04:02:17.851Z,9.70
2022-12-29T04:06:40.811Z,9.80
2022-12-29T04:11:04.624Z,9.80
2022-12-29T04:15:27.559Z,9.80
2022-12-29T04:19:49.626Z,9.80
2022-12-29T04:24:11.979Z,9.80
2022-12-29T04:28:37.651Z,9.80
2022-12-29T04:33:17.396Z,9.70
2022-12-29T04:37:40.992Z,9.70
2022-12-29T04:42:02.993Z,9.70
2022-12-29T04:46:25.557Z,9.70
2022-12-29T04:51:04.911Z,9.70
2022-12-29T04:55:33.266Z,9.70
2022-12-29T04:59:55.973Z,9.70
2022-12-29T05:04:18.006Z,9.70
2022-12-29T05:08:39.885Z,9.70
2022-12-29T05:13:01.988Z,9.70
2022-12-29T05:17:24.578Z,9.70
2022-12-29T05:21:46.559Z,9.80
2022-12-29T05:26:08.540Z,9.80
2022-12-29T05:30:53.895Z,9.80
2022-12-29T05:35:15.953Z,9.80
2022-12-29T05:39:37.985Z,9.80
2022-12-29T05:44:01.837Z,9.80
2022-12-29T05:48:26.968Z,9.70
2022-12-29T05:53:12.068Z,9.70
2022-12-29T05:57:34.837Z,9.60
2022-12-29T06:02:03.960Z,9.60
2022-12-29T06:06:26.822Z,9.50
2022-12-29T06:10:49.020Z,9.50
2022-12-29T06:15:12.034Z,9.50
2022-12-29T06:19:36.044Z,9.40
2022-12-29T06:23:57.887Z,9.30
2022-12-29T06:28:20.670Z,9.20
2022-12-29T06:32:42.310Z,9.20
2022-12-29T06:37:06.854Z,9.30
2022-12-29T06:41:32.594Z,9.40
2022-12-29T06:46:15.065Z,9.50
2022-12-29T06:50:37.061Z,9.50
2022-12-29T06:54:59.999Z,9.50
2022-12-29T06:59:21.706Z,9.50
2022-12-29T07:03:44.309Z,9.50
2022-12-29T07:08:06.768Z,9.50
2022-12-29T07:12:29.006Z,9.50
2022-12-29T07:16:50.886Z,9.30
2022-12-29T07:21:13.018Z,9.10
2022-12-29T07:25:36.969Z,9.00
2022-12-29T07:29:58.884Z,9.00
2022-12-29T07:34:20.987Z,9.10
2022-12-29T07:38:43.691Z,9.10
2022-12-29T07:43:05.984Z,9.20
2022-12-29T07:47:34.596Z,9.30
2022-12-29T07:51:56.466Z,9.30
2022-12-29T07:56:19.218Z,9.50
2022-12-29T08:00:41.296Z,9.60
2022-12-29T08:05:03.546Z,9.70
2022-12-29T08:09:25.566Z,9.90
2022-12-29T08:13:47.328Z,10.00
2022-12-29T08:18:09.496Z,10.00
2022-12-29T08:22:31.428Z,9.90
2022-12-29T08:26:53.280Z,10.00
2022-12-29T08:31:15.344Z,10.30
2022-12-29T08:35:42.377Z,10.30
2022-12-29T08:40:05.801Z,10.20
2022-12-29T08:44:28.276Z,10.10
2022-12-29T08:48:50.503Z,10.20
2022-12-29T08:53:13.099Z,10.20
2022-12-29T08:57:34.871Z,10.30
2022-12-29T09:02:05.664Z,10.40
2022-12-29T09:06:27.207Z,10.50
2022-12-29T09:10:49.788Z,10.70
2022-12-29T09:15:13.416Z,11.40
2022-12-29T09:19:35.517Z,11.50
2022-12-29T09:23:58.077Z,12.10
2022-12-29T09:28:24.219Z,12.00
2022-12-29T09:32:47.778Z,12.00
2022-12-29T09:37:13.454Z,13.00
2022-12-29T09:42:24.920Z,14.10
2022-12-29T09:46:53.810Z,14.70
2022-12-29T09:51:22.376Z,15.50
2022-12-29T09:55:50.506Z,15.70
2022-12-29T10:00:18.016Z,14.00
2022-12-29T10:04:42.961Z,12.80
2022-12-29T10:09:45.297Z,12.30
2022-12-29T10:14:44.820Z,12.20
2022-12-29T10:20:06.313Z,12.60
2022-12-29T10:24:30.750Z,13.10
2022-12-29T10:29:11.370Z,13.80
2022-12-29T10:33:41.792Z,13.50
2022-12-29T10:38:24.510Z,13.30
2022-12-29T10:42:53.265Z,13.40
2022-12-29T10:47:31.063Z,13.60
2022-12-29T10:51:59.448Z,13.30
2022-12-29T10:56:46.164Z,13.80
2022-12-29T11:01:13.466Z,14.80
2022-12-29T11:05:42.115Z,14.90
2022-12-29T11:10:41.886Z,13.90
2022-12-29T11:15:15.537Z,13.20
2022-12-29T11:19:41.005Z,13.00
2022-12-29T11:24:06.550Z,12.70
2022-12-29T11:28:31.657Z,12.60
2022-12-29T11:32:55.749Z,12.50
2022-12-29T11:37:32.462Z,12.40
2022-12-29T11:41:55.063Z,12.20
2022-12-29T11:46:29.421Z,12.00
2022-12-29T11:50:58.792Z,12.00
2022-12-29T11:55:24.745Z,11.90
2022-12-29T12:00:01.578Z,12.10
2022-12-29T12:04:30.113Z,12.10
2022-12-29T12:09:00.533Z,12.00
2022-12-29T12:14:03.171Z,12.10
2022-12-29T12:18:43.235Z,12.40
2022-12-29T12:23:23.827Z,12.60
2022-12-29T12:28:14.445Z,12.70
2022-12-29T12:32:57.283Z,12.70
2022-12-29T12:37:34.074Z,12.70
2022-12-29T12:42:44.262Z,12.80
2022-12-29T12:47:30.192Z,13.00
2022-12-29T12:52:41.076Z,13.00
2022-12-29T12:57:38.297Z,13.10
2022-12-29T13:02:51.244Z,13.10
2022-12-29T13:07:31.427Z,12.90
2022-12-29T13:12:11.409Z,12.70
2022-12-29T13:17:12.070Z,12.50
2022-12-29T13:21:57.381Z,12.40
2022-12-29T13:26:34.944Z,12.30
2022-12-29T13:31:21.849Z,12.20
2022-12-29T13:36:04.921Z,12.10
2022-12-29T13:40:35.166Z,12.10
2022-12-29T13:45:14.651Z,12.10
2022-12-29T13:49:37.009Z,12.10
2022-12-29T13:54:25.755Z,12.00
2022-12-29T13:58:55.915Z,12.00
2022-12-29T14:03:30.886Z,11.90
2022-12-29T14:08:03.157Z,11.90
2022-12-29T14:12:44.459Z,11.90
2022-12-29T14:17:15.241Z,11.80
2022-12-29T14:21:38.559Z,11.80
2022-12-29T14:26:13.359Z,11.70
2022-12-29T14:30:54.259Z,11.60
2022-12-29T14:35:42.024Z,11.50
2022-12-29T14:40:20.084Z,11.40
2022-12-29T14:45:04.952Z,11.10
2022-12-29T14:49:32.166Z,10.90
2022-12-29T14:53:53.974Z,10.80
2022-12-29T14:58:27.169Z,10.60
2022-12-29T15:03:08.703Z,10.50
2022-12-29T15:07:31.725Z,10.40
2022-12-29T15:12:02.492Z,10.30
2022-12-29T15:16:32.813Z,10.30
2022-12-29T15:21:07.651Z,10.30
2022-12-29T15:25:29.728Z,10.20
2022-12-29T15:30:17.778Z,10.10
2022-12-29T15:34:40.247Z,10.00
2022-12-29T15:39:18.354Z,9.90
2022-12-29T15:44:13.883Z,9.70
2022-12-29T15:48:39.096Z,9.70
2022-12-29T15:53:02.935Z,9.70
2022-12-29T15:57:29.397Z,9.70
2022-12-29T16:01:52.583Z,9.60
2022-12-29T16:06:26.268Z,9.50
2022-12-29T16:10:48.492Z,9.50
2022-12-29T16:15:15.145Z,9.50
2022-12-29T16:19:40.321Z,9.60
2022-12-29T16:24:09.925Z,9.60
2022-12-29T16:28:43.284Z,9.60
2022-12-29T16:33:06.951Z,9.70
2022-12-29T16:37:32.932Z,9.70
2022-12-29T16:41:56.002Z,9.70
2022-12-29T16:46:38.929Z,9.50
2022-12-29T16:51:27.254Z,9.40
2022-12-29T16:55:53.859Z,9.30
2022-12-29T17:00:26.587Z,9.10
2022-12-29T17:04:50.620Z,8.90
2022-12-29T17:09:26.456Z,8.70
2022-12-29T17:13:48.225Z,8.70
2022-12-29T17:18:13.881Z,8.70
2022-12-29T17:22:36.995Z,8.50
2022-12-29T17:27:00.878Z,8.40
2022-12-29T17:31:22.506Z,8.30
2022-12-29T17:35:45.241Z,8.30
2022-12-29T17:40:15.316Z,8.20
2022-12-29T17:44:36.968Z,8.10
2022-12-29T17:48:58.933Z,8.00
2022-12-29T17:53:25.900Z,7.90
2022-12-29T17:57:48.206Z,7.90
2022-12-29T18:02:30.885Z,8.10
2022-12-29T18:06:52.701Z,8.10
2022-12-29T18:11:26.783Z,8.10
2022-12-29T18:15:48.828Z,8.00
2022-12-29T18:20:11.234Z,7.80
2022-12-29T18:24:33.094Z,7.70
2022-12-29T18:28:57.295Z,7.80
2022-12-29T18:33:24.970Z,8.20
2022-12-29T18:37:48.771Z,8.50
2022-12-29T18:42:16.490Z,8.70
2022-12-29T18:46:38.179Z,8.90
2022-12-29T18:51:04.911Z,8.90
2022-12-29T18:55:29.191Z,9.00
2022-12-29T18:59:51.103Z,9.10
2022-12-29T19:04:15.369Z,9.20
2022-12-29T19:08:36.968Z,9.20
2022-12-29T19:12:58.880Z,9.20
2022-12-29T19:17:20.704Z,9.30
2022-12-29T19:21:43.543Z,9.30
2022-12-29T19:26:05.602Z,9.30
2022-12-29T19:30:28.656Z,9.30
2022-12-29T19:34:50.281Z,9.40
2022-12-29T19:39:12.957Z,9.30
2022-12-29T19:43:39.347Z,9.20
2022-12-29T19:48:01.330Z,9.10
2022-12-29T19:52:28.247Z,9.00
2022-12-29T19:56:52.116Z,8.80
2022-12-29T20:01:17.795Z,8.50
2022-12-29T20:05:40.405Z,8.30
2022-12-29T20:10:04.114Z,8.20
2022-12-29T20:14:26.567Z,8.10
2022-12-29T20:18:49.498Z,8.10
2022-12-29T20:23:11.915Z,8.10
2022-12-29T20:27:34.031Z,8.00
2022-12-29T20:31:56.400Z,7.90
2022-12-29T20:36:23.860Z,7.80
2022-12-29T20:40:47.084Z,7.80
2022-12-29T20:45:09.629Z,7.70
2022-12-29T20:49:31.879Z,7.70
2022-12-29T20:53:54.739Z,7.60
2022-12-29T20:58:24.767Z,7.50
2022-12-29T21:02:48.535Z,7.30
2022-12-29T21:07:13.794Z,7.20
2022-12-29T21:11:39.310Z,7.00
2022-12-29T21:16:08.096Z,6.90
2022-12-29T21:20:32.042Z,7.00
2022-12-29T21:24:53.804Z,7.00
2022-12-29T21:29:15.732Z,6.90
2022-12-29T21:33:38.265Z,6.90
2022-12-29T21:38:01.621Z,7.00
2022-12-29T21:42:23.798Z,7.10
2022-12-29T21:46:47.858Z,7.10
2022-12-29T21:51:32.336Z,7.00
2022-12-29T21:55:54.595Z,6.90
2022-12-29T22:00:35.779Z,6.90
2022-12-29T22:05:16.362Z,6.80
2022-12-29T22:09:57.189Z,6.70
2022-12-29T22:14:18.997Z,6.70
2022-12-29T22:18:40.979Z,6.70
2022-12-29T22:23:03.706Z,6.70
2022-12-29T22:27:25.343Z,6.70
2022-12-29T22:31:47.255Z,6.60
2022-12-29T22:36:09.760Z,6.60
2022-12-29T22:40:31.573Z,6.60
2022-12-29T22:44:53.369Z,6.60
2022-12-29T22:49:15.757Z,6.70
2022-12-29T22:53:37.700Z,6.90
2022-12-29T22:57:59.339Z,7.00
2022-12-29T23:02:21.475Z,7.00
2022-12-29T23:06:43.359Z,7.00
2022-12-29T23:11:08.215Z,7.00
2022-12-29T23:15:29.933Z,7.10
2022-12-29T23:19:53.323Z,7.20
2022-12-29T23:24:17.569Z,7.10
2022-12-29T23:28:39.522Z,7.00
2022-12-29T23:33:01.696Z,6.90
2022-12-29T23:37:23.804Z,6.90
2022-12-29T23:41:45.811Z,7.00
2022-12-29T23:46:10.092Z,7.10
2022-12-29T23:50:32.213Z,7.10
2022-12-29T23:54:53.943Z,7.10
2022-12-29T23:59:16.050Z,7.00
